createdAt,value
2019-03-12T00:01:04.582Z,86.10
2019-03-12T00:03:33.368Z,86.60
2019-03-12T00:06:02.107Z,87.10
2019-03-12T00:08:30.952Z,87.90
2019-03-12T00:10:59.735Z,88.20
2019-03-12T00:13:28.603Z,88.40
2019-03-12T00:15:57.452Z,88.50
2019-03-12T00:18:28.397Z,89.40
2019-03-12T00:20:56.857Z,88.80
2019-03-12T00:23:25.774Z,89.10
2019-03-12T00:25:54.529Z,89.10
2019-03-12T00:28:23.331Z,88.60
2019-03-12T00:30:52.163Z,89.00
2019-03-12T00:33:20.965Z,89.00
2019-03-12T00:35:49.727Z,89.50
2019-03-12T00:38:18.617Z,89.50
2019-03-12T00:40:47.390Z,89.60
2019-03-12T00:43:16.219Z,89.70
2019-03-12T00:45:44.966Z,89.80
2019-03-12T00:48:13.728Z,89.80
2019-03-12T00:50:42.610Z,89.70
2019-03-12T00:53:12.881Z,89.90
2019-03-12T00:55:41.657Z,89.80
2019-03-12T00:58:10.503Z,89.90
2019-03-12T01:00:39.329Z,90.00
2019-03-12T01:03:08.145Z,90.00
2019-03-12T01:05:36.883Z,90.00
2019-03-12T01:08:05.746Z,90.10
2019-03-12T01:10:34.539Z,90.10
2019-03-12T01:13:15.015Z,90.20
2019-03-12T01:15:43.747Z,90.30
2019-03-12T01:18:13.808Z,90.30
2019-03-12T01:20:42.850Z,90.40
2019-03-12T01:23:11.586Z,90.50
2019-03-12T01:25:40.355Z,90.50
2019-03-12T01:28:09.414Z,90.60
2019-03-12T01:30:38.191Z,90.60
2019-03-12T01:33:07.007Z,90.50
2019-03-12T01:35:35.816Z,90.40
2019-03-12T01:38:04.607Z,90.20
2019-03-12T01:40:33.368Z,90.10
2019-03-12T01:43:02.195Z,90.00
2019-03-12T01:45:31.090Z,90.00
2019-03-12T01:47:59.855Z,90.20
2019-03-12T01:50:28.705Z,90.10
2019-03-12T01:52:57.503Z,90.20
2019-03-12T01:55:26.293Z,90.50
2019-03-12T01:57:55.104Z,90.20
2019-03-12T02:00:23.880Z,90.20
2019-03-12T02:02:52.696Z,90.10
2019-03-12T02:05:21.504Z,90.00
2019-03-12T02:07:50.247Z,89.40
2019-03-12T02:10:19.124Z,89.00
2019-03-12T02:12:47.996Z,88.30
2019-03-12T02:15:17.588Z,88.00
2019-03-12T02:17:46.322Z,87.40
2019-03-12T02:20:17.289Z,86.90
2019-03-12T02:22:46.115Z,87.50
2019-03-12T02:25:18.800Z,86.10
2019-03-12T02:27:47.637Z,85.90
2019-03-12T02:30:20.897Z,85.60
2019-03-12T02:32:49.693Z,85.40
2019-03-12T02:35:18.494Z,85.30
2019-03-12T02:37:47.275Z,85.30
2019-03-12T02:40:17.489Z,85.00
2019-03-12T02:42:46.333Z,84.60
2019-03-12T02:45:16.888Z,84.30
2019-03-12T02:47:45.787Z,84.40
2019-03-12T02:50:15.669Z,86.40
2019-03-12T02:52:44.604Z,90.60
2019-03-12T02:55:14.231Z,91.80
2019-03-12T02:57:43.204Z,92.20
2019-03-12T03:00:19.229Z,92.70
2019-03-12T03:02:48.036Z,92.80
2019-03-12T03:05:16.808Z,93.40
2019-03-12T03:07:50.207Z,93.60
2019-03-12T03:10:19.089Z,93.70
2019-03-12T03:12:47.925Z,93.70
2019-03-12T03:15:18.814Z,93.40
2019-03-12T03:17:47.641Z,93.50
2019-03-12T03:20:16.459Z,93.50
2019-03-12T03:22:45.184Z,93.90
2019-03-12T03:25:15.204Z,93.50
2019-03-12T03:27:43.985Z,93.70
2019-03-12T03:30:15.688Z,93.60
2019-03-12T03:32:44.700Z,93.30
2019-03-12T03:35:13.451Z,93.50
2019-03-12T03:37:42.336Z,93.40
2019-03-12T03:40:14.158Z,93.60
2019-03-12T03:42:42.961Z,93.60
2019-03-12T03:45:11.717Z,93.80
2019-03-12T03:47:40.614Z,93.50
2019-03-12T03:50:11.947Z,93.30
2019-03-12T03:52:40.723Z,93.00
2019-03-12T03:55:15.088Z,93.60
2019-03-12T03:57:44.035Z,92.90
2019-03-12T04:00:23.466Z,93.40
2019-03-12T04:02:52.231Z,93.50
2019-03-12T04:05:21.258Z,94.30
2019-03-12T04:07:50.170Z,94.60
2019-03-12T04:10:19.004Z,94.40
2019-03-12T04:12:47.875Z,94.10
2019-03-12T04:15:20.083Z,93.70
2019-03-12T04:17:48.921Z,93.80
2019-03-12T04:20:18.762Z,93.60
2019-03-12T04:22:47.657Z,93.90
2019-03-12T04:25:16.506Z,93.70
2019-03-12T04:27:45.246Z,94.10
2019-03-12T04:30:21.457Z,93.70
2019-03-12T04:32:50.257Z,94.00
2019-03-12T04:35:24.779Z,93.80
2019-03-12T04:37:53.598Z,93.70
2019-03-12T04:40:22.405Z,93.90
2019-03-12T04:42:51.214Z,93.60
2019-03-12T04:45:20.094Z,94.00
2019-03-12T04:51:18.085Z,93.60
2019-03-12T04:53:46.866Z,93.20
2019-03-12T04:56:15.606Z,93.20
2019-03-12T04:58:44.415Z,93.30
2019-03-12T05:01:13.199Z,93.50
2019-03-12T05:03:42.016Z,93.30
2019-03-12T05:06:10.940Z,93.50
2019-03-12T05:08:39.979Z,93.70
2019-03-12T05:11:08.765Z,93.70
2019-03-12T05:13:37.565Z,93.30
2019-03-12T05:16:06.355Z,93.60
2019-03-12T05:18:35.194Z,93.90
2019-03-12T05:21:04.016Z,94.10
2019-03-12T05:23:32.791Z,94.60
2019-03-12T05:26:01.716Z,94.80
2019-03-12T05:28:30.579Z,94.80
2019-03-12T05:30:59.371Z,94.90
2019-03-12T05:33:28.221Z,95.10
2019-03-12T05:35:57.088Z,95.30
2019-03-12T05:38:25.926Z,94.90
2019-03-12T05:40:54.709Z,94.70
2019-03-12T05:43:23.534Z,94.70
2019-03-12T05:45:52.329Z,94.60
2019-03-12T05:48:21.093Z,95.20
2019-03-12T05:50:49.984Z,95.40
2019-03-12T05:53:21.554Z,95.60
2019-03-12T05:55:50.390Z,95.50
2019-03-12T05:58:19.894Z,95.20
2019-03-12T06:00:48.800Z,95.20
2019-03-12T06:03:17.648Z,94.70
2019-03-12T06:05:46.467Z,94.60
2019-03-12T06:08:15.338Z,94.50
2019-03-12T06:10:44.158Z,94.60
2019-03-12T06:13:13.088Z,94.60
2019-03-12T06:15:41.887Z,94.00
2019-03-12T06:18:10.761Z,94.00
2019-03-12T06:20:39.610Z,93.90
2019-03-12T06:23:08.379Z,93.90
2019-03-12T06:25:37.200Z,94.00
2019-03-12T06:28:06.018Z,94.40
2019-03-12T06:30:36.459Z,94.60
2019-03-12T06:33:12.583Z,95.30
2019-03-12T06:35:45.927Z,95.60
2019-03-12T06:38:25.330Z,95.70
2019-03-12T06:41:02.198Z,95.70
2019-03-12T06:43:32.688Z,95.90
2019-03-12T06:46:03.146Z,96.50
2019-03-12T06:48:42.663Z,96.80
2019-03-12T06:51:16.071Z,96.80
2019-03-12T06:53:49.552Z,96.60
2019-03-12T06:56:35.309Z,96.40
2019-03-12T06:59:14.799Z,96.80
2019-03-12T07:01:51.438Z,96.50
2019-03-12T07:04:21.943Z,95.60
2019-03-12T07:07:11.208Z,95.50
2019-03-12T07:09:45.309Z,95.50
2019-03-12T07:12:15.741Z,94.70
2019-03-12T07:14:58.527Z,95.30
2019-03-12T07:17:41.199Z,95.10
2019-03-12T07:20:13.516Z,95.30
2019-03-12T07:22:47.099Z,95.30
2019-03-12T07:25:17.561Z,95.80
2019-03-12T07:28:04.397Z,95.70
2019-03-12T07:30:34.886Z,95.10
2019-03-12T07:33:05.326Z,94.10
2019-03-12T07:35:39.007Z,93.30
2019-03-12T07:38:21.546Z,92.90
2019-03-12T07:40:51.998Z,92.70
2019-03-12T07:43:31.670Z,91.90
2019-03-12T07:46:18.456Z,90.60
2019-03-12T07:48:48.870Z,89.00
2019-03-12T07:51:22.243Z,85.80
2019-03-12T07:53:59.462Z,86.40
2019-03-12T07:56:30.561Z,85.80
2019-03-12T07:59:19.190Z,84.90
2019-03-12T08:02:06.109Z,82.40
2019-03-12T08:04:45.559Z,80.50
2019-03-12T08:07:22.047Z,78.60
2019-03-12T08:10:01.768Z,78.40
2019-03-12T08:12:48.841Z,79.50
2019-03-12T08:15:35.738Z,78.10
2019-03-12T08:18:11.456Z,77.50
2019-03-12T08:20:50.716Z,77.50
2019-03-12T08:23:27.010Z,75.80
2019-03-12T08:26:00.155Z,76.20
2019-03-12T08:28:36.472Z,76.70
2019-03-12T08:31:10.004Z,79.70
2019-03-12T08:33:50.702Z,82.40
2019-03-12T08:36:32.136Z,85.30
2019-03-12T08:39:08.600Z,86.10
2019-03-12T08:41:41.743Z,86.10
2019-03-12T08:44:12.388Z,86.20
2019-03-12T08:46:45.580Z,85.50
2019-03-12T08:49:15.993Z,86.00
2019-03-12T08:51:49.240Z,84.10
2019-03-12T08:54:35.559Z,82.10
2019-03-12T08:57:22.742Z,81.30
2019-03-12T08:59:59.247Z,77.50
2019-03-12T09:02:29.756Z,74.20
2019-03-12T09:05:15.258Z,73.30
2019-03-12T09:07:45.728Z,74.00
2019-03-12T09:10:18.952Z,71.50
2019-03-12T09:12:52.102Z,69.80
2019-03-12T09:15:38.517Z,68.10
2019-03-12T09:18:24.339Z,67.20
2019-03-12T09:21:10.981Z,66.60
2019-03-12T09:23:49.978Z,66.10
2019-03-12T09:26:20.451Z,66.10
2019-03-12T09:28:50.853Z,66.10
2019-03-12T09:31:21.476Z,63.90
2019-03-12T09:33:57.656Z,64.10
2019-03-12T09:36:30.692Z,63.30
2019-03-12T09:39:01.120Z,64.70
2019-03-12T09:41:47.777Z,65.40
2019-03-12T09:44:34.439Z,69.90
2019-03-12T09:47:07.996Z,76.80
2019-03-12T09:49:38.409Z,82.10
2019-03-12T09:52:11.667Z,84.60
2019-03-12T09:54:42.138Z,85.70
2019-03-12T09:57:12.577Z,84.60
2019-03-12T09:59:46.012Z,84.80
2019-03-12T10:02:16.424Z,85.80
2019-03-12T10:04:58.860Z,87.30
2019-03-12T10:07:32.305Z,87.50
2019-03-12T10:10:05.517Z,87.40
2019-03-12T10:12:52.255Z,87.00
2019-03-12T10:15:25.388Z,87.40
2019-03-12T10:18:12.103Z,83.90
2019-03-12T10:20:54.876Z,82.10
2019-03-12T10:23:31.275Z,84.00
2019-03-12T10:26:18.243Z,87.10
2019-03-12T10:28:51.651Z,88.60
2019-03-12T10:31:25.048Z,90.30
2019-03-12T10:34:13.854Z,90.40
2019-03-12T10:36:44.360Z,90.00
2019-03-12T10:39:55.536Z,86.60
2019-03-12T10:42:30.826Z,83.20
2019-03-12T10:45:16.529Z,81.80
2019-03-12T10:47:52.989Z,80.70
2019-03-12T10:50:22.075Z,78.90
2019-03-12T10:52:50.888Z,77.50
2019-03-12T10:55:19.707Z,75.70
2019-03-12T10:57:48.506Z,71.40
2019-03-12T11:00:18.731Z,70.10
2019-03-12T11:02:47.634Z,69.50
2019-03-12T11:05:17.895Z,69.40
2019-03-12T11:07:46.926Z,69.30
2019-03-12T11:10:17.057Z,71.70
2019-03-12T11:12:45.988Z,73.00
2019-03-12T11:15:15.791Z,73.40
2019-03-12T11:17:49.443Z,77.80
2019-03-12T11:20:26.015Z,81.70
2019-03-12T11:22:56.404Z,80.80
2019-03-12T11:25:27.762Z,78.80
2019-03-12T11:27:55.653Z,80.10
2019-03-12T11:30:24.525Z,76.50
2019-03-12T11:32:53.299Z,75.30
2019-03-12T11:35:22.091Z,76.20
2019-03-12T11:37:51.060Z,73.40
2019-03-12T11:40:31.878Z,72.00
2019-03-12T11:42:57.672Z,71.10
2019-03-12T11:45:36.318Z,71.90
2019-03-12T11:47:56.985Z,69.60
2019-03-12T11:50:26.635Z,67.60
2019-03-12T11:52:58.384Z,66.70
2019-03-12T11:55:26.018Z,63.60
2019-03-12T11:57:54.844Z,61.90
2019-03-12T12:00:38.676Z,61.00
2019-03-12T12:03:07.600Z,62.50
2019-03-12T12:05:36.455Z,61.00
2019-03-12T12:08:05.353Z,61.90
2019-03-12T12:10:34.249Z,60.60
2019-03-12T12:13:03.122Z,62.20
2019-03-12T12:15:32.597Z,62.50
2019-03-12T12:18:01.461Z,63.80
2019-03-12T12:20:30.610Z,64.30
2019-03-12T12:22:59.551Z,64.40
2019-03-12T12:25:28.423Z,66.20
2019-03-12T12:27:57.210Z,67.90
2019-03-12T12:30:26.160Z,69.70
2019-03-12T12:32:55.004Z,71.40
2019-03-12T12:35:23.831Z,70.90
2019-03-12T12:37:52.691Z,70.80
2019-03-12T12:40:22.494Z,70.00
2019-03-12T12:42:51.274Z,70.80
2019-03-12T12:45:28.102Z,69.80
2019-03-12T12:47:56.893Z,66.70
2019-03-12T12:50:25.776Z,65.00
2019-03-12T12:52:54.731Z,63.80
2019-03-12T12:55:23.542Z,64.80
2019-03-12T12:57:52.416Z,66.90
2019-03-12T13:00:23.293Z,68.20
2019-03-12T13:02:52.077Z,69.70
2019-03-12T13:05:22.577Z,69.50
2019-03-12T13:07:51.530Z,68.90
2019-03-12T13:10:23.112Z,69.40
2019-03-12T13:12:51.853Z,70.30
2019-03-12T13:15:21.180Z,71.00
2019-03-12T13:17:49.965Z,72.80
2019-03-12T13:20:18.803Z,73.30
2019-03-12T13:22:47.731Z,76.70
2019-03-12T13:25:19.764Z,80.70
2019-03-12T13:27:48.600Z,82.00
2019-03-12T13:30:21.320Z,81.40
2019-03-12T13:32:50.249Z,81.20
2019-03-12T13:35:19.657Z,83.80
2019-03-12T13:37:49.268Z,83.00
2019-03-12T13:40:28.137Z,82.40
2019-03-12T13:42:57.029Z,81.30
2019-03-12T13:45:28.505Z,79.80
2019-03-12T13:47:57.560Z,80.00
2019-03-12T13:50:26.803Z,78.20
2019-03-12T13:52:55.596Z,79.00
2019-03-12T13:55:24.657Z,78.00
2019-03-12T13:57:53.464Z,79.40
2019-03-12T14:00:23.443Z,78.30
2019-03-12T14:02:52.648Z,80.30
2019-03-12T14:05:21.559Z,80.50
2019-03-12T14:07:50.394Z,80.80
2019-03-12T14:10:23.395Z,79.90
2019-03-12T14:12:53.431Z,80.00
2019-03-12T14:15:25.002Z,79.40
2019-03-12T14:17:53.839Z,80.20
2019-03-12T14:20:40.759Z,81.00
2019-03-12T14:23:11.347Z,81.70
2019-03-12T14:25:40.124Z,79.10
2019-03-12T14:28:09.002Z,80.10
2019-03-12T14:30:37.780Z,80.00
2019-03-12T14:33:06.652Z,79.10
2019-03-12T14:35:35.457Z,78.20
2019-03-12T14:38:04.238Z,77.00
2019-03-12T14:40:33.051Z,76.10
2019-03-12T14:43:01.970Z,75.70
2019-03-12T14:45:31.026Z,75.80
2019-03-12T14:47:59.941Z,76.00
2019-03-12T14:50:30.699Z,75.60
2019-03-12T14:53:07.451Z,75.40
2019-03-12T14:55:35.855Z,76.40
2019-03-12T14:58:04.942Z,76.40
2019-03-12T15:00:33.760Z,77.20
2019-03-12T15:03:02.575Z,75.90
2019-03-12T15:05:31.516Z,75.90
2019-03-12T15:08:00.278Z,76.70
2019-03-12T15:10:29.203Z,77.10
2019-03-12T15:12:57.984Z,78.70
2019-03-12T15:15:26.819Z,79.70
2019-03-12T15:17:55.665Z,79.60
2019-03-12T15:20:24.446Z,79.40
2019-03-12T15:22:53.317Z,79.10
2019-03-12T15:25:22.161Z,77.40
2019-03-12T15:27:51.353Z,77.50
2019-03-12T15:33:49.352Z,76.80
2019-03-12T15:36:18.196Z,78.10
2019-03-12T15:38:47.076Z,78.20
2019-03-12T15:41:15.971Z,78.60
2019-03-12T15:43:44.770Z,79.30
2019-03-12T15:46:13.551Z,79.20
2019-03-12T15:48:42.452Z,78.50
2019-03-12T15:51:11.337Z,77.50
2019-03-12T15:53:40.137Z,76.70
2019-03-12T15:56:08.945Z,77.40
2019-03-12T15:58:37.715Z,76.50
2019-03-12T16:01:06.557Z,76.70
2019-03-12T16:03:35.386Z,76.40
2019-03-12T16:06:04.164Z,76.40
2019-03-12T16:08:33.050Z,76.60
2019-03-12T16:11:01.934Z,77.30
2019-03-12T16:13:30.807Z,78.90
2019-03-12T16:15:59.684Z,79.40
2019-03-12T16:18:28.528Z,78.60
2019-03-12T16:20:57.406Z,78.40
2019-03-12T16:23:26.260Z,78.10
2019-03-12T16:25:55.185Z,77.50
2019-03-12T16:28:24.075Z,77.90
2019-03-12T16:30:52.911Z,76.50
2019-03-12T16:33:21.679Z,75.10
2019-03-12T16:35:50.465Z,75.00
2019-03-12T16:38:19.283Z,75.30
2019-03-12T16:40:48.079Z,75.40
2019-03-12T16:43:17.054Z,75.20
2019-03-12T16:45:45.923Z,74.60
2019-03-12T16:48:14.749Z,75.20
2019-03-12T16:50:43.537Z,76.10
2019-03-12T16:53:12.346Z,75.90
2019-03-12T16:55:41.250Z,75.00
2019-03-12T16:58:10.073Z,75.10
2019-03-12T17:00:38.899Z,75.10
2019-03-12T17:03:07.732Z,74.20
2019-03-12T17:05:36.542Z,74.30
2019-03-12T17:08:05.346Z,74.70
2019-03-12T17:10:34.152Z,73.90
2019-03-12T17:13:02.976Z,74.50
2019-03-12T17:15:31.823Z,74.70
2019-03-12T17:18:00.643Z,75.20
2019-03-12T17:20:29.452Z,75.60
2019-03-12T17:22:58.226Z,75.80
2019-03-12T17:25:27.068Z,76.10
2019-03-12T17:27:55.879Z,75.60
2019-03-12T17:30:25.479Z,75.00
2019-03-12T17:32:54.403Z,75.10
2019-03-12T17:35:38.032Z,75.40
2019-03-12T17:38:06.844Z,75.80
2019-03-12T17:40:35.768Z,74.80
2019-03-12T17:43:04.704Z,75.10
2019-03-12T17:45:33.565Z,74.70
2019-03-12T17:48:02.411Z,74.40
2019-03-12T17:50:31.284Z,75.00
2019-03-12T17:53:00.192Z,74.50
2019-03-12T17:55:29.049Z,74.30
2019-03-12T17:57:57.953Z,73.70
2019-03-12T18:00:34.159Z,73.60
2019-03-12T18:03:02.974Z,74.30
2019-03-12T18:05:31.826Z,74.30
2019-03-12T18:08:00.715Z,73.50
2019-03-12T18:10:29.590Z,74.20
2019-03-12T18:12:58.383Z,73.90
2019-03-12T18:15:27.238Z,73.20
2019-03-12T18:17:56.008Z,73.40
2019-03-12T18:20:24.969Z,73.40
2019-03-12T18:29:51.659Z,72.70
2019-03-12T18:32:20.452Z,72.50
2019-03-12T18:34:49.299Z,71.80
2019-03-12T18:37:18.159Z,71.30
2019-03-12T18:39:47.030Z,71.70
2019-03-12T18:42:15.845Z,71.60
2019-03-12T18:44:44.692Z,72.20
2019-03-12T18:47:13.471Z,71.60
2019-03-12T18:49:43.494Z,72.50
2019-03-12T18:52:12.373Z,70.90
2019-03-12T18:54:41.192Z,72.20
2019-03-12T18:57:10.100Z,71.10
2019-03-12T18:59:38.881Z,71.70
2019-03-12T19:02:07.694Z,71.00
2019-03-12T19:04:37.009Z,70.30
2019-03-12T19:07:05.911Z,70.40
2019-03-12T19:09:34.742Z,69.80
2019-03-12T19:12:03.519Z,70.00
2019-03-12T19:14:32.393Z,70.30
2019-03-12T19:17:01.187Z,69.60
2019-03-12T19:19:30.086Z,70.30
2019-03-12T19:22:01.263Z,70.80
2019-03-12T19:24:30.042Z,70.50
2019-03-12T19:26:58.863Z,71.10
2019-03-12T19:29:27.680Z,71.10
2019-03-12T19:31:58.095Z,71.00
2019-03-12T19:34:28.535Z,70.60
2019-03-12T19:36:59.717Z,71.00
2019-03-12T19:39:30.061Z,70.40
2019-03-12T19:41:58.921Z,71.00
2019-03-12T19:44:27.870Z,70.90
2019-03-12T19:46:57.174Z,72.00
2019-03-12T19:49:26.008Z,72.10
2019-03-12T19:51:55.235Z,72.20
2019-03-12T19:54:24.145Z,73.00
2019-03-12T19:56:53.139Z,72.50
2019-03-12T19:59:22.076Z,73.20
2019-03-12T20:01:59.865Z,73.00
2019-03-12T20:04:28.758Z,72.30
2019-03-12T20:06:57.721Z,71.50
2019-03-12T20:09:32.559Z,71.00
2019-03-12T20:12:22.775Z,70.60
2019-03-12T20:15:00.478Z,70.10
2019-03-12T20:17:43.483Z,69.60
2019-03-12T20:20:37.802Z,69.70
2019-03-12T20:23:35.004Z,69.10
2019-03-12T20:26:31.329Z,69.50
2019-03-12T20:29:09.089Z,70.00
2019-03-12T20:32:05.231Z,69.60
2019-03-12T20:35:05.114Z,69.70
2019-03-12T20:37:57.636Z,69.20
2019-03-12T20:41:05.241Z,68.40
2019-03-12T20:43:57.235Z,68.60
2019-03-12T20:46:35.079Z,68.50
2019-03-12T20:49:38.365Z,68.50
2019-03-12T20:52:32.932Z,70.00
2019-03-12T20:55:02.470Z,69.50
2019-03-12T20:57:54.123Z,70.70
2019-03-12T21:00:58.016Z,71.40
2019-03-12T21:03:41.742Z,72.10
2019-03-12T21:06:28.389Z,72.80
2019-03-12T21:09:28.807Z,73.50
2019-03-12T21:12:32.229Z,74.00
2019-03-12T21:15:34.750Z,75.00
2019-03-12T21:18:23.176Z,75.60
2019-03-12T21:20:57.698Z,75.90
2019-03-12T21:23:52.123Z,76.30
2019-03-12T21:26:40.437Z,76.80
2019-03-12T21:29:12.289Z,77.00
2019-03-12T21:31:41.179Z,77.70
2019-03-12T21:34:12.725Z,78.10
2019-03-12T21:36:41.604Z,78.50
2019-03-12T21:39:10.551Z,78.60
2019-03-12T21:41:39.478Z,78.60
2019-03-12T21:44:08.393Z,78.90
2019-03-12T21:46:37.293Z,78.60
2019-03-12T21:49:06.390Z,79.20
2019-03-12T21:51:35.328Z,79.40
2019-03-12T21:54:04.230Z,79.90
2019-03-12T21:56:33.022Z,80.10
2019-03-12T21:59:01.983Z,80.20
2019-03-12T22:01:30.888Z,80.40
2019-03-12T22:04:02.832Z,80.70
2019-03-12T22:06:32.957Z,80.60
2019-03-12T22:09:01.777Z,81.10
2019-03-12T22:11:30.650Z,81.50
2019-03-12T22:13:59.556Z,81.30
2019-03-12T22:16:28.532Z,81.00
2019-03-12T22:18:57.324Z,81.10
2019-03-12T22:21:33.926Z,81.30
2019-03-12T22:24:09.349Z,81.30
2019-03-12T22:26:38.226Z,81.70
2019-03-12T22:29:07.081Z,81.80
2019-03-12T22:31:35.940Z,81.90
2019-03-12T22:34:04.733Z,82.00
2019-03-12T22:36:33.602Z,82.30
2019-03-12T22:39:02.388Z,82.50
2019-03-12T22:41:31.268Z,82.50
2019-03-12T22:44:02.689Z,82.90
2019-03-12T22:46:31.462Z,83.10
2019-03-12T22:49:00.376Z,83.30
2019-03-12T22:51:29.313Z,83.20
2019-03-12T22:53:58.125Z,82.90
2019-03-12T22:56:26.890Z,83.10
2019-03-12T22:58:55.815Z,83.40
2019-03-12T23:01:24.659Z,83.60
2019-03-12T23:03:53.531Z,83.80
2019-03-12T23:06:22.465Z,84.20
2019-03-12T23:08:51.332Z,84.30
2019-03-12T23:11:20.171Z,83.90
2019-03-12T23:13:49.029Z,84.40
2019-03-12T23:16:17.880Z,84.70
2019-03-12T23:18:46.776Z,84.90
2019-03-12T23:21:15.958Z,85.10
2019-03-12T23:23:44.760Z,85.10
2019-03-12T23:26:15.199Z,85.10
2019-03-12T23:28:44.095Z,84.80
2019-03-12T23:31:12.982Z,84.50
2019-03-12T23:33:41.807Z,85.20
2019-03-12T23:36:11.905Z,85.50
2019-03-12T23:38:40.763Z,85.70
2019-03-12T23:41:09.605Z,86.10
2019-03-12T23:43:38.616Z,86.20
2019-03-12T23:46:07.536Z,85.80
2019-03-12T23:48:36.430Z,85.50
2019-03-12T23:51:05.450Z,85.40
2019-03-12T23:53:34.346Z,85.30
2019-03-12T23:56:03.213Z,85.20
2019-03-12T23:58:32.419Z,85.40
